createdAt,value
2022-12-11T00:02:22.431Z,0.30
2022-12-11T00:04:49.667Z,0.40
2022-12-11T00:07:16.847Z,0.30
2022-12-11T00:09:43.987Z,0.40
2022-12-11T00:12:10.983Z,0.20
2022-12-11T00:14:38.037Z,0.40
2022-12-11T00:17:05.373Z,0.40
2022-12-11T00:19:32.762Z,0.40
2022-12-11T00:22:00.184Z,0.50
2022-12-11T00:24:28.226Z,0.40
2022-12-11T00:26:55.444Z,0.30
2022-12-11T00:29:22.677Z,0.10
2022-12-11T00:31:49.929Z,0.10
2022-12-11T00:34:17.189Z,0.10
2022-12-11T00:36:44.419Z,0.10
2022-12-11T00:39:11.669Z,0.20
2022-12-11T00:41:38.914Z,0.20
2022-12-11T00:44:06.172Z,0.20
2022-12-11T00:46:33.538Z,0.20
2022-12-11T00:49:01.018Z,0.30
2022-12-11T00:51:28.229Z,0.20
2022-12-11T00:53:55.390Z,0.20
2022-12-11T00:56:23.211Z,0.20
2022-12-11T00:58:50.450Z,0.30
2022-12-11T01:01:20.413Z,0.20
2022-12-11T01:03:47.882Z,0.20
2022-12-11T01:06:16.718Z,0.00
2022-12-11T01:08:44.190Z,0.00
2022-12-11T01:11:13.128Z,-0.10
2022-12-11T01:13:40.576Z,-0.10
2022-12-11T01:16:13.113Z,0.00
2022-12-11T01:18:40.415Z,0.00
2022-12-11T01:21:11.908Z,0.10
2022-12-11T01:23:39.319Z,0.10
2022-12-11T01:26:10.728Z,0.20
2022-12-11T01:28:38.015Z,0.20
2022-12-11T01:31:12.176Z,0.20
2022-12-11T01:33:39.832Z,0.20
2022-12-11T01:36:18.123Z,0.20
2022-12-11T01:38:46.117Z,0.10
2022-12-11T01:41:13.748Z,0.20
2022-12-11T01:43:57.015Z,0.20
2022-12-11T01:46:24.640Z,0.10
2022-12-11T01:48:52.069Z,0.20
2022-12-11T01:51:19.286Z,0.20
2022-12-11T01:53:54.538Z,0.10
2022-12-11T01:56:21.748Z,0.10
2022-12-11T01:58:51.908Z,0.20
2022-12-11T02:01:47.445Z,0.20
2022-12-11T02:04:14.824Z,0.20
2022-12-11T02:06:44.028Z,0.20
2022-12-11T02:09:13.455Z,0.20
2022-12-11T02:11:53.950Z,0.10
2022-12-11T02:14:34.673Z,0.10
2022-12-11T02:17:07.139Z,0.20
2022-12-11T02:19:53.102Z,0.20
2022-12-11T02:22:52.471Z,0.10
2022-12-11T02:25:57.053Z,0.10
2022-12-11T02:28:42.765Z,0.10
2022-12-11T02:31:28.283Z,0.10
2022-12-11T02:34:37.456Z,0.10
2022-12-11T02:37:07.744Z,0.20
2022-12-11T02:39:34.859Z,0.10
2022-12-11T02:42:02.017Z,0.10
2022-12-11T02:44:30.736Z,0.10
2022-12-11T02:46:57.933Z,0.00
2022-12-11T02:49:25.150Z,-0.10
2022-12-11T02:51:52.274Z,-0.10
2022-12-11T02:54:33.433Z,-0.10
2022-12-11T02:57:09.557Z,-0.20
2022-12-11T02:59:39.047Z,-0.20
2022-12-11T03:02:06.517Z,-0.10
2022-12-11T03:04:34.650Z,-0.10
2022-12-11T03:07:12.085Z,-0.10
2022-12-11T03:09:40.400Z,-0.10
2022-12-11T03:12:08.824Z,-0.20
2022-12-11T03:14:36.777Z,-0.10
2022-12-11T03:17:14.670Z,-0.10
2022-12-11T03:19:55.874Z,-0.10
2022-12-11T03:22:27.930Z,-0.30
2022-12-11T03:25:13.516Z,-0.20
2022-12-11T03:28:25.705Z,-0.40
2022-12-11T03:30:53.259Z,-0.40
2022-12-11T03:33:41.369Z,-0.30
2022-12-11T03:36:11.439Z,-0.40
2022-12-11T03:38:44.926Z,-0.40
2022-12-11T03:41:12.576Z,-0.40
2022-12-11T03:43:40.098Z,-0.50
2022-12-11T03:46:07.923Z,-0.70
2022-12-11T03:48:36.807Z,-0.80
2022-12-11T03:51:05.395Z,-0.60
2022-12-11T03:53:33.944Z,-0.60
2022-12-11T03:56:01.244Z,-0.60
2022-12-11T03:58:28.431Z,-0.60
2022-12-11T04:00:55.894Z,-0.70
2022-12-11T04:03:23.045Z,-0.80
2022-12-11T04:05:51.777Z,-0.80
2022-12-11T04:08:20.949Z,-1.00
2022-12-11T04:10:48.491Z,-0.90
2022-12-11T04:13:15.674Z,-0.90
2022-12-11T04:15:42.983Z,-0.70
2022-12-11T04:18:28.660Z,-0.70
2022-12-11T04:21:14.385Z,-0.70
2022-12-11T04:24:00.177Z,-0.60
2022-12-11T04:26:27.231Z,-0.60
2022-12-11T04:28:54.185Z,-0.60
2022-12-11T04:31:22.200Z,-0.70
2022-12-11T04:33:49.575Z,-0.70
2022-12-11T04:36:17.102Z,-0.60
2022-12-11T04:38:44.297Z,-0.60
2022-12-11T04:41:13.047Z,-0.60
2022-12-11T04:43:40.535Z,-0.50
2022-12-11T04:46:12.665Z,-0.50
2022-12-11T04:48:39.853Z,-0.50
2022-12-11T04:51:07.249Z,-0.40
2022-12-11T04:53:34.793Z,-0.50
2022-12-11T04:56:02.315Z,-0.50
2022-12-11T04:58:29.408Z,-0.50
2022-12-11T05:00:56.465Z,-0.40
2022-12-11T05:03:23.606Z,-0.40
2022-12-11T05:05:53.753Z,-0.40
2022-12-11T05:08:21.403Z,-0.30
2022-12-11T05:11:01.989Z,-0.30
2022-12-11T05:13:29.351Z,-0.30
2022-12-11T05:15:56.627Z,-0.20
2022-12-11T05:18:23.909Z,-0.10
2022-12-11T05:20:58.055Z,-0.20
2022-12-11T05:23:25.368Z,-0.20
2022-12-11T05:25:53.836Z,-0.10
2022-12-11T05:28:21.704Z,0.00
2022-12-11T05:30:49.049Z,0.00
2022-12-11T05:33:16.047Z,0.00
2022-12-11T05:35:48.299Z,0.00
2022-12-11T05:38:15.346Z,0.00
2022-12-11T05:40:42.530Z,0.10
2022-12-11T05:43:09.795Z,0.00
2022-12-11T05:45:36.907Z,0.10
2022-12-11T05:48:04.635Z,0.10
2022-12-11T05:50:31.809Z,0.00
2022-12-11T05:52:58.949Z,0.10
2022-12-11T05:55:25.945Z,0.00
2022-12-11T05:57:53.150Z,0.00
2022-12-11T06:00:20.366Z,0.00
2022-12-11T06:02:47.688Z,0.00
2022-12-11T06:05:15.033Z,0.10
2022-12-11T06:07:41.983Z,0.10
2022-12-11T06:10:09.572Z,0.10
2022-12-11T06:12:36.797Z,0.00
2022-12-11T06:15:05.733Z,0.10
2022-12-11T06:17:33.738Z,-0.10
2022-12-11T06:20:01.017Z,-0.10
2022-12-11T06:22:28.190Z,0.00
2022-12-11T06:24:56.851Z,-0.10
2022-12-11T06:27:24.054Z,-0.10
2022-12-11T06:29:51.395Z,0.00
2022-12-11T06:32:18.453Z,0.00
2022-12-11T06:34:45.655Z,-0.10
2022-12-11T06:37:12.976Z,-0.40
2022-12-11T06:39:40.140Z,-0.40
2022-12-11T06:42:07.367Z,-0.30
2022-12-11T06:44:34.451Z,-0.20
2022-12-11T06:47:01.470Z,-0.10
2022-12-11T06:49:28.556Z,-0.10
2022-12-11T06:51:55.751Z,0.00
2022-12-11T06:54:27.573Z,-0.20
2022-12-11T06:56:54.789Z,-0.20
2022-12-11T06:59:21.847Z,-0.10
2022-12-11T07:01:49.307Z,-0.10
2022-12-11T07:04:16.636Z,-0.10
2022-12-11T07:06:43.980Z,0.00
2022-12-11T07:09:11.253Z,0.10
2022-12-11T07:11:38.903Z,0.00
2022-12-11T07:14:06.204Z,0.10
2022-12-11T07:16:33.440Z,0.00
2022-12-11T07:19:00.893Z,0.10
2022-12-11T07:21:28.064Z,-0.10
2022-12-11T07:23:55.464Z,-0.10
2022-12-11T07:26:22.753Z,0.00
2022-12-11T07:28:50.008Z,0.00
2022-12-11T07:31:19.660Z,-0.10
2022-12-11T07:33:47.508Z,0.00
2022-12-11T07:36:14.993Z,0.10
2022-12-11T07:38:42.313Z,0.10
2022-12-11T07:41:12.615Z,0.00
2022-12-11T07:43:39.775Z,0.00
2022-12-11T07:46:13.132Z,0.20
2022-12-11T07:48:41.249Z,0.10
2022-12-11T07:51:26.758Z,0.10
2022-12-11T07:53:55.536Z,0.10
2022-12-11T07:56:23.026Z,0.10
2022-12-11T07:58:50.410Z,0.00
2022-12-11T08:01:19.568Z,0.10
2022-12-11T08:03:47.010Z,0.10
2022-12-11T08:06:14.253Z,0.00
2022-12-11T08:08:42.152Z,-0.10
2022-12-11T08:11:11.470Z,0.10
2022-12-11T08:13:38.792Z,0.00
2022-12-11T08:16:07.057Z,0.00
2022-12-11T08:18:35.127Z,0.00
2022-12-11T08:21:09.672Z,0.00
2022-12-11T08:23:37.108Z,0.10
2022-12-11T08:26:08.677Z,0.10
2022-12-11T08:28:36.041Z,0.10
2022-12-11T08:31:06.927Z,0.00
2022-12-11T08:33:34.816Z,0.00
2022-12-11T08:36:09.323Z,-0.30
2022-12-11T08:38:36.616Z,-0.30
2022-12-11T08:41:10.712Z,-0.20
2022-12-11T08:43:38.208Z,-0.10
2022-12-11T08:46:05.545Z,-0.30
2022-12-11T08:48:33.854Z,-0.50
2022-12-11T08:51:05.595Z,-0.50
2022-12-11T08:53:33.166Z,-0.40
2022-12-11T08:56:08.123Z,-0.50
2022-12-11T08:58:35.894Z,-0.30
2022-12-11T09:01:12.413Z,-0.30
2022-12-11T09:03:40.540Z,-0.50
2022-12-11T09:06:09.370Z,-0.50
2022-12-11T09:08:36.895Z,-0.50
2022-12-11T09:11:08.106Z,-0.50
2022-12-11T09:13:35.275Z,-0.40
2022-12-11T09:16:05.547Z,-0.30
2022-12-11T09:18:32.860Z,-0.40
2022-12-11T09:21:10.472Z,-0.60
2022-12-11T09:23:37.674Z,-0.60
2022-12-11T09:26:06.240Z,-0.60
2022-12-11T09:28:33.565Z,-0.50
2022-12-11T09:31:00.863Z,-0.30
2022-12-11T09:33:28.288Z,-0.40
2022-12-11T09:36:03.062Z,-0.50
2022-12-11T09:38:30.553Z,-0.50
2022-12-11T09:40:58.157Z,-0.30
2022-12-11T09:43:44.011Z,-0.20
2022-12-11T09:46:12.078Z,0.10
2022-12-11T09:48:40.273Z,0.40
2022-12-11T09:51:19.121Z,0.40
2022-12-11T09:53:46.187Z,0.10
2022-12-11T09:56:25.799Z,-0.10
2022-12-11T09:59:20.733Z,0.10
2022-12-11T10:02:11.838Z,0.30
2022-12-11T10:04:47.655Z,0.50
2022-12-11T10:07:30.772Z,0.60
2022-12-11T10:10:13.006Z,0.60
2022-12-11T10:12:46.378Z,0.80
2022-12-11T10:15:35.509Z,0.70
2022-12-11T10:18:05.279Z,0.60
2022-12-11T10:20:39.493Z,0.80
2022-12-11T10:23:14.133Z,1.00
2022-12-11T10:25:43.256Z,0.80
2022-12-11T10:28:17.871Z,1.10
2022-12-11T10:31:07.113Z,1.10
2022-12-11T10:34:08.414Z,1.20
2022-12-11T10:36:37.166Z,1.40
2022-12-11T10:39:04.497Z,1.50
2022-12-11T10:41:39.278Z,1.30
2022-12-11T10:44:29.715Z,1.40
2022-12-11T10:47:11.913Z,1.20
2022-12-11T10:49:39.879Z,0.90
2022-12-11T10:52:20.108Z,0.70
2022-12-11T10:54:49.206Z,0.70
2022-12-11T10:57:16.673Z,0.50
2022-12-11T10:59:43.969Z,0.20
2022-12-11T11:02:25.431Z,0.30
2022-12-11T11:04:52.743Z,0.30
2022-12-11T11:07:22.011Z,0.20
2022-12-11T11:09:49.494Z,0.00
2022-12-11T11:12:24.935Z,0.10
2022-12-11T11:15:02.389Z,0.10
2022-12-11T11:17:34.932Z,0.00
2022-12-11T11:20:07.538Z,0.00
2022-12-11T11:22:37.417Z,0.20
2022-12-11T11:25:05.252Z,0.30
2022-12-11T11:27:49.500Z,0.20
2022-12-11T11:30:21.319Z,0.10
2022-12-11T11:32:48.360Z,0.20
2022-12-11T11:35:18.931Z,0.20
2022-12-11T11:37:47.583Z,0.20
2022-12-11T11:40:22.190Z,0.30
2022-12-11T11:43:13.020Z,0.30
2022-12-11T11:45:57.960Z,0.10
2022-12-11T11:48:35.713Z,0.20
2022-12-11T11:51:32.277Z,0.20
2022-12-11T11:54:01.704Z,0.30
2022-12-11T11:56:36.476Z,0.30
2022-12-11T11:59:33.582Z,0.20
2022-12-11T12:02:00.704Z,0.00
2022-12-11T12:04:33.019Z,0.10
2022-12-11T12:07:30.168Z,0.10
2022-12-11T12:10:07.297Z,0.10
2022-12-11T12:12:34.866Z,0.00
2022-12-11T12:15:18.466Z,0.10
2022-12-11T12:17:55.673Z,0.10
2022-12-11T12:20:31.647Z,0.10
2022-12-11T12:23:24.518Z,0.20
2022-12-11T12:26:11.731Z,0.20
2022-12-11T12:28:51.942Z,0.20
2022-12-11T12:31:44.021Z,0.20
2022-12-11T12:34:21.258Z,0.10
2022-12-11T12:36:57.195Z,0.20
2022-12-11T12:39:38.969Z,0.00
2022-12-11T12:42:07.937Z,0.00
2022-12-11T12:45:02.144Z,0.20
2022-12-11T12:47:31.073Z,0.20
2022-12-11T12:49:58.732Z,0.30
2022-12-11T12:52:35.002Z,0.30
2022-12-11T12:55:26.103Z,0.10
2022-12-11T12:58:00.946Z,0.10
2022-12-11T13:00:33.159Z,0.10
2022-12-11T13:03:21.238Z,-0.10
2022-12-11T13:06:04.466Z,0.00
2022-12-11T13:08:35.526Z,0.00
2022-12-11T13:11:12.589Z,0.00
2022-12-11T13:13:41.916Z,-0.10
2022-12-11T13:16:18.022Z,-0.20
2022-12-11T13:18:47.830Z,-0.20
2022-12-11T13:21:32.497Z,-0.10
2022-12-11T13:24:17.672Z,-0.20
2022-12-11T13:26:44.981Z,-0.30
2022-12-11T13:29:34.796Z,-0.20
2022-12-11T13:32:05.636Z,-0.30
2022-12-11T13:34:33.855Z,-0.50
2022-12-11T13:37:00.906Z,-0.40
2022-12-11T13:39:29.900Z,-0.40
2022-12-11T13:42:20.633Z,-0.50
2022-12-11T13:44:47.876Z,-0.50
2022-12-11T13:47:17.153Z,-0.50
2022-12-11T13:49:44.832Z,-0.50
2022-12-11T13:52:22.595Z,-0.70
2022-12-11T13:54:52.133Z,-0.60
2022-12-11T13:57:23.609Z,-0.60
2022-12-11T13:59:55.354Z,-0.60
2022-12-11T14:02:35.396Z,-0.50
2022-12-11T14:05:07.794Z,-0.50
2022-12-11T14:07:41.115Z,-0.50
2022-12-11T14:10:14.939Z,-0.50
2022-12-11T14:12:50.444Z,-0.50
2022-12-11T14:15:17.570Z,-0.70
2022-12-11T14:17:50.013Z,-0.70
2022-12-11T14:20:32.247Z,-0.70
2022-12-11T14:23:26.476Z,-0.70
2022-12-11T14:25:58.376Z,-0.70
2022-12-11T14:28:28.046Z,-0.60
2022-12-11T14:30:57.256Z,-0.70
2022-12-11T14:33:26.519Z,-0.70
2022-12-11T14:35:53.590Z,-0.80
2022-12-11T14:38:26.235Z,-0.70
2022-12-11T14:40:59.836Z,-0.80
2022-12-11T14:43:36.875Z,-0.80
2022-12-11T14:46:15.818Z,-0.80
2022-12-11T14:48:46.196Z,-0.80
2022-12-11T14:51:15.131Z,-0.70
2022-12-11T14:53:47.099Z,-0.90
2022-12-11T14:56:19.652Z,-0.80
2022-12-11T14:59:00.578Z,-0.90
2022-12-11T15:01:29.918Z,-0.90
2022-12-11T15:04:15.586Z,-1.00
2022-12-11T15:06:47.181Z,-1.00
2022-12-11T15:09:19.482Z,-0.90
2022-12-11T15:11:47.281Z,-1.00
2022-12-11T15:14:14.333Z,-1.00
2022-12-11T15:16:41.951Z,-1.00
2022-12-11T15:19:27.557Z,-1.10
2022-12-11T15:21:54.809Z,-1.30
2022-12-11T15:24:33.400Z,-1.20
2022-12-11T15:27:01.341Z,-1.30
2022-12-11T15:29:34.465Z,-1.30
2022-12-11T15:32:20.095Z,-1.30
2022-12-11T15:34:52.100Z,-1.20
2022-12-11T15:37:20.225Z,-1.30
2022-12-11T15:39:47.319Z,-1.10
2022-12-11T15:42:15.143Z,-1.30
2022-12-11T15:44:42.237Z,-1.40
2022-12-11T15:47:15.535Z,-1.30
2022-12-11T15:49:42.904Z,-1.40
2022-12-11T15:52:10.068Z,-1.40
2022-12-11T15:54:37.864Z,-1.50
2022-12-11T15:57:06.743Z,-1.40
2022-12-11T15:59:34.102Z,-1.40
2022-12-11T16:02:01.309Z,-1.50
2022-12-11T16:04:28.627Z,-1.50
2022-12-11T16:06:56.298Z,-1.50
2022-12-11T16:09:23.515Z,-1.60
2022-12-11T16:11:50.809Z,-1.60
2022-12-11T16:14:18.198Z,-1.50
2022-12-11T16:16:45.435Z,-1.60
2022-12-11T16:19:12.485Z,-1.60
2022-12-11T16:21:39.814Z,-1.60
2022-12-11T16:24:07.261Z,-1.60
2022-12-11T16:26:34.535Z,-1.70
2022-12-11T16:29:01.891Z,-1.80
2022-12-11T16:31:29.063Z,-1.60
2022-12-11T16:33:56.338Z,-1.60
2022-12-11T16:36:23.618Z,-1.70
2022-12-11T16:38:54.003Z,-1.70
2022-12-11T16:41:23.120Z,-1.80
2022-12-11T16:43:50.343Z,-1.90
2022-12-11T16:46:21.837Z,-1.90
2022-12-11T16:48:49.177Z,-1.90
2022-12-11T16:51:16.578Z,-1.90
2022-12-11T16:53:43.798Z,-2.00
2022-12-11T16:56:11.058Z,-1.80
2022-12-11T16:58:38.251Z,-2.00
2022-12-11T17:01:14.734Z,-1.90
2022-12-11T17:03:42.520Z,-1.80
2022-12-11T17:06:10.748Z,-1.80
2022-12-11T17:08:38.131Z,-1.80
2022-12-11T17:11:09.085Z,-1.90
2022-12-11T17:13:36.607Z,-1.90
2022-12-11T17:16:13.901Z,-2.00
2022-12-11T17:18:41.173Z,-1.90
2022-12-11T17:21:21.039Z,-1.80
2022-12-11T17:23:48.303Z,-1.80
2022-12-11T17:26:15.876Z,-1.90
2022-12-11T17:28:43.159Z,-1.90
2022-12-11T17:31:18.106Z,-1.90
2022-12-11T17:33:46.128Z,-1.90
2022-12-11T17:36:14.899Z,-1.80
2022-12-11T17:38:42.163Z,-1.80
2022-12-11T17:41:13.137Z,-1.80
2022-12-11T17:43:43.997Z,-1.90
2022-12-11T17:46:11.813Z,-1.90
2022-12-11T17:48:39.192Z,-1.90
2022-12-11T17:51:07.652Z,-2.00
2022-12-11T17:53:35.902Z,-1.90
2022-12-11T17:56:04.072Z,-1.90
2022-12-11T17:58:31.449Z,-1.90
2022-12-11T18:00:58.991Z,-2.00
2022-12-11T18:03:26.635Z,-1.90
2022-12-11T18:05:55.780Z,-1.90
2022-12-11T18:08:26.285Z,-1.90
2022-12-11T18:10:53.823Z,-1.90
2022-12-11T18:13:21.238Z,-1.80
2022-12-11T18:15:48.784Z,-1.80
2022-12-11T18:18:16.017Z,-2.00
2022-12-11T18:20:43.214Z,-1.80
2022-12-11T18:23:10.890Z,-1.90
2022-12-11T18:25:38.142Z,-2.00
2022-12-11T18:28:05.761Z,-2.00
2022-12-11T18:30:32.968Z,-2.00
2022-12-11T18:32:59.991Z,-2.20
2022-12-11T18:35:28.002Z,-2.00
2022-12-11T18:37:55.115Z,-1.90
2022-12-11T18:40:22.352Z,-1.90
2022-12-11T18:42:49.735Z,-1.90
2022-12-11T18:45:17.223Z,-2.00
2022-12-11T18:47:44.327Z,-1.90
2022-12-11T18:50:11.433Z,-1.80
2022-12-11T18:52:38.549Z,-1.80
2022-12-11T18:55:05.964Z,-1.90
2022-12-11T18:57:33.656Z,-2.00
2022-12-11T19:00:07.605Z,-1.90
2022-12-11T19:02:35.099Z,-2.00
2022-12-11T19:05:02.307Z,-2.10
2022-12-11T19:07:29.871Z,-2.10
2022-12-11T19:09:56.878Z,-2.10
2022-12-11T19:12:23.900Z,-2.00
2022-12-11T19:14:51.057Z,-2.10
2022-12-11T19:17:18.238Z,-2.00
2022-12-11T19:19:46.362Z,-1.90
2022-12-11T19:22:15.089Z,-1.90
2022-12-11T19:24:42.311Z,-2.00
2022-12-11T19:27:13.410Z,-2.00
2022-12-11T19:29:41.461Z,-2.00
2022-12-11T19:32:08.585Z,-2.00
2022-12-11T19:34:36.038Z,-1.90
2022-12-11T19:37:03.247Z,-1.90
2022-12-11T19:39:30.452Z,-2.00
2022-12-11T19:41:57.490Z,-1.90
2022-12-11T19:44:24.554Z,-1.90
2022-12-11T19:46:51.855Z,-1.90
2022-12-11T19:49:19.228Z,-1.80
2022-12-11T19:51:46.748Z,-1.80
2022-12-11T19:54:15.040Z,-2.00
2022-12-11T19:56:42.187Z,-2.00
2022-12-11T19:59:10.883Z,-1.80
2022-12-11T20:01:38.239Z,-1.80
2022-12-11T20:04:07.713Z,-1.90
2022-12-11T20:06:35.825Z,-1.80
2022-12-11T20:09:03.732Z,-1.80
2022-12-11T20:11:31.822Z,-2.00
2022-12-11T20:13:59.215Z,-2.00
2022-12-11T20:16:46.223Z,-2.10
2022-12-11T20:19:13.275Z,-2.10
2022-12-11T20:21:40.646Z,-2.10
2022-12-11T20:24:08.225Z,-2.30
2022-12-11T20:26:37.389Z,-2.30
2022-12-11T20:29:07.524Z,-2.40
2022-12-11T20:31:35.047Z,-2.40
2022-12-11T20:34:02.755Z,-2.60
2022-12-11T20:36:30.135Z,-2.70
2022-12-11T20:38:57.219Z,-2.60
2022-12-11T20:41:25.216Z,-2.70
2022-12-11T20:43:54.133Z,-2.50
2022-12-11T20:46:23.444Z,-2.50
2022-12-11T20:48:50.895Z,-2.40
2022-12-11T20:51:25.216Z,-2.40
2022-12-11T20:53:58.708Z,-2.40
2022-12-11T20:56:28.118Z,-2.30
2022-12-11T20:58:55.530Z,-2.20
2022-12-11T21:01:24.898Z,-2.30
2022-12-11T21:03:53.475Z,-2.30
2022-12-11T21:06:25.958Z,-2.30
2022-12-11T21:08:53.398Z,-2.30
2022-12-11T21:11:20.578Z,-2.30
2022-12-11T21:13:47.616Z,-2.40
2022-12-11T21:16:15.133Z,-2.50
2022-12-11T21:18:44.312Z,-2.40
2022-12-11T21:21:11.874Z,-2.50
2022-12-11T21:23:39.148Z,-2.80
2022-12-11T21:26:06.398Z,-2.80
2022-12-11T21:28:35.797Z,-2.90
2022-12-11T21:31:05.019Z,-2.90
2022-12-11T21:33:32.267Z,-2.90
2022-12-11T21:35:59.937Z,-2.80
2022-12-11T21:38:27.332Z,-2.80
2022-12-11T21:40:54.533Z,-3.00
2022-12-11T21:43:21.797Z,-3.00
2022-12-11T21:46:04.793Z,-3.20
2022-12-11T21:48:33.145Z,-3.20
2022-12-11T21:51:11.039Z,-3.30
2022-12-11T21:53:38.520Z,-3.40
2022-12-11T21:56:12.758Z,-3.40
2022-12-11T21:58:40.704Z,-3.30
2022-12-11T22:01:16.995Z,-3.50
2022-12-11T22:03:44.367Z,-3.50
2022-12-11T22:06:11.735Z,-3.40
2022-12-11T22:08:38.906Z,-3.30
2022-12-11T22:11:06.470Z,-3.30
2022-12-11T22:13:33.516Z,-3.40
2022-12-11T22:16:00.815Z,-3.50
2022-12-11T22:18:28.294Z,-3.50
2022-12-11T22:20:55.635Z,-3.30
2022-12-11T22:23:22.767Z,-3.30
2022-12-11T22:25:50.090Z,-3.30
2022-12-11T22:28:17.206Z,-3.20
2022-12-11T22:30:44.608Z,-3.20
2022-12-11T22:33:12.148Z,-3.20
2022-12-11T22:35:39.151Z,-3.10
2022-12-11T22:38:06.953Z,-3.10
2022-12-11T22:40:34.539Z,-3.00
2022-12-11T22:43:01.779Z,-3.00
2022-12-11T22:45:28.948Z,-2.90
2022-12-11T22:47:56.167Z,-2.80
2022-12-11T22:50:23.400Z,-2.80
2022-12-11T22:52:50.639Z,-2.80
2022-12-11T22:55:18.115Z,-2.60
2022-12-11T22:57:45.190Z,-2.60
2022-12-11T23:00:14.059Z,-2.50
2022-12-11T23:02:41.300Z,-2.70
2022-12-11T23:05:10.396Z,-2.60
2022-12-11T23:07:38.409Z,-2.60
2022-12-11T23:10:07.905Z,-2.50
2022-12-11T23:12:35.294Z,-2.50
2022-12-11T23:15:02.484Z,-2.40
2022-12-11T23:17:29.728Z,-2.50
2022-12-11T23:19:57.157Z,-2.40
2022-12-11T23:22:24.342Z,-2.50
2022-12-11T23:24:51.581Z,-2.50
2022-12-11T23:27:18.899Z,-2.40
2022-12-11T23:29:46.395Z,-2.40
2022-12-11T23:32:13.587Z,-2.50
2022-12-11T23:34:40.708Z,-2.50
2022-12-11T23:37:07.925Z,-2.60
2022-12-11T23:39:35.146Z,-2.50
2022-12-11T23:42:02.568Z,-2.50
2022-12-11T23:44:29.668Z,-2.40
2022-12-11T23:46:56.886Z,-2.30
2022-12-11T23:49:24.185Z,-2.40
2022-12-11T23:51:51.386Z,-2.40
2022-12-11T23:54:18.515Z,-2.30
2022-12-11T23:56:46.095Z,-2.50
2022-12-11T23:59:14.128Z,-2.60
